createdAt,value
2023-01-02T00:01:10.320Z,12.15
2023-01-02T00:03:37.285Z,7.63
2023-01-02T00:06:06.013Z,9.77
2023-01-02T00:08:33.622Z,15.27
2023-01-02T00:11:00.440Z,8.30
2023-01-02T00:13:27.347Z,13.85
2023-01-02T00:15:54.258Z,12.43
2023-01-02T00:18:21.074Z,9.55
2023-01-02T00:20:47.878Z,11.30
2023-01-02T00:23:14.640Z,13.48
2023-01-02T00:25:41.566Z,15.85
2023-01-02T00:28:08.519Z,10.95
2023-01-02T00:30:38.936Z,13.60
2023-01-02T00:33:08.961Z,12.73
2023-01-02T00:35:39.265Z,11.52
2023-01-02T00:38:06.594Z,12.40
2023-01-02T00:40:34.519Z,8.52
2023-01-02T00:43:02.241Z,13.55
2023-01-02T00:45:29.187Z,13.13
2023-01-02T00:47:56.015Z,15.10
2023-01-02T00:50:23.078Z,8.55
2023-01-02T00:52:49.851Z,11.43
2023-01-02T00:55:18.669Z,12.15
2023-01-02T00:57:45.501Z,12.95
2023-01-02T01:00:15.866Z,11.50
2023-01-02T01:02:46.913Z,13.70
2023-01-02T01:05:13.729Z,15.73
2023-01-02T01:07:40.596Z,11.20
2023-01-02T01:10:08.051Z,13.40
2023-01-02T01:12:34.858Z,9.07
2023-01-02T01:15:01.686Z,9.88
2023-01-02T01:17:29.238Z,10.55
2023-01-02T01:19:56.047Z,11.23
2023-01-02T01:22:22.906Z,12.25
2023-01-02T01:24:50.159Z,10.70
2023-01-02T01:27:16.985Z,9.13
2023-01-02T01:29:43.750Z,8.23
2023-01-02T01:32:10.688Z,12.45
2023-01-02T01:34:37.513Z,10.45
2023-01-02T01:37:04.519Z,11.80
2023-01-02T01:39:31.328Z,13.88
2023-01-02T01:42:02.372Z,9.52
2023-01-02T01:44:54.143Z,9.82
2023-01-02T01:47:39.080Z,11.50
2023-01-02T01:50:27.423Z,5.57
2023-01-02T01:53:01.026Z,15.05
2023-01-02T01:55:46.693Z,7.78
2023-01-02T01:58:27.460Z,6.43
2023-01-02T02:00:54.506Z,9.23
2023-01-02T02:03:27.792Z,10.35
2023-01-02T02:05:56.841Z,15.23
2023-01-02T02:08:42.162Z,9.93
2023-01-02T02:11:10.145Z,8.77
2023-01-02T02:13:37.055Z,13.75
2023-01-02T02:16:06.869Z,14.55
2023-01-02T02:19:01.442Z,13.00
2023-01-02T02:21:55.897Z,12.55
2023-01-02T02:24:48.973Z,10.13
2023-01-02T02:27:55.140Z,8.73
2023-01-02T02:30:26.873Z,10.00
2023-01-02T02:33:16.490Z,15.70
2023-01-02T02:36:08.189Z,12.05
2023-01-02T02:39:13.844Z,12.80
2023-01-02T02:42:11.773Z,12.48
2023-01-02T02:45:19.349Z,6.38
2023-01-02T02:48:19.158Z,13.48
2023-01-02T02:51:17.930Z,11.40
2023-01-02T02:54:00.612Z,11.45
2023-01-02T02:56:28.990Z,11.30
2023-01-02T02:58:56.587Z,10.20
2023-01-02T03:01:30.919Z,8.70
2023-01-02T03:03:58.514Z,10.55
2023-01-02T03:06:49.187Z,8.32
2023-01-02T03:09:27.988Z,14.15
2023-01-02T03:12:23.942Z,9.70
2023-01-02T03:15:04.065Z,12.30
2023-01-02T03:18:05.046Z,8.95
2023-01-02T03:20:44.245Z,15.23
2023-01-02T03:23:21.633Z,12.35
2023-01-02T03:25:49.323Z,13.10
2023-01-02T03:28:22.717Z,6.18
2023-01-02T03:30:57.061Z,11.68
2023-01-02T03:33:33.905Z,10.25
2023-01-02T03:36:10.074Z,8.77
2023-01-02T03:38:47.236Z,7.53
2023-01-02T03:41:28.603Z,8.57
2023-01-02T03:44:00.320Z,6.75
2023-01-02T03:46:41.389Z,9.27
2023-01-02T03:49:33.008Z,9.25
2023-01-02T03:52:00.536Z,8.23
2023-01-02T03:54:30.032Z,8.02
2023-01-02T03:57:08.608Z,6.60
2023-01-02T04:00:09.927Z,7.93
2023-01-02T04:02:59.033Z,9.05
2023-01-02T04:05:34.571Z,5.60
2023-01-02T04:08:25.979Z,10.15
2023-01-02T04:10:58.703Z,7.78
2023-01-02T04:13:35.449Z,8.00
2023-01-02T04:16:07.677Z,9.77
2023-01-02T04:18:47.249Z,10.80
2023-01-02T04:21:21.769Z,6.10
2023-01-02T04:24:03.216Z,7.72
2023-01-02T04:26:39.551Z,10.13
2023-01-02T04:29:06.657Z,12.23
2023-01-02T04:31:49.084Z,12.90
2023-01-02T04:34:19.718Z,8.90
2023-01-02T04:36:47.083Z,8.13
2023-01-02T04:39:13.843Z,9.82
2023-01-02T04:41:41.432Z,10.02
2023-01-02T04:44:08.262Z,8.55
2023-01-02T04:46:35.166Z,8.18
2023-01-02T04:49:02.069Z,10.45
2023-01-02T04:51:28.837Z,13.00
2023-01-02T04:53:55.674Z,9.95
2023-01-02T04:56:22.702Z,7.28
2023-01-02T04:58:50.643Z,6.88
2023-01-02T05:01:21.125Z,8.60
2023-01-02T05:03:52.818Z,10.73
2023-01-02T05:06:20.041Z,7.30
2023-01-02T05:08:46.881Z,8.85
2023-01-02T05:11:20.357Z,9.75
2023-01-02T05:13:47.295Z,8.73
2023-01-02T05:16:14.247Z,7.43
2023-01-02T05:18:41.168Z,12.10
2023-01-02T05:21:30.100Z,10.48
2023-01-02T05:24:02.501Z,11.40
2023-01-02T05:26:33.549Z,10.52
2023-01-02T05:29:01.597Z,9.13
2023-01-02T05:31:29.434Z,9.55
2023-01-02T05:33:58.676Z,8.43
2023-01-02T05:36:27.243Z,8.38
2023-01-02T05:38:54.590Z,8.75
2023-01-02T05:41:22.536Z,9.18
2023-01-02T05:43:49.350Z,8.70
2023-01-02T05:46:19.780Z,9.35
2023-01-02T05:48:47.210Z,6.85
2023-01-02T05:51:17.690Z,8.35
2023-01-02T05:53:45.263Z,10.75
2023-01-02T05:56:16.536Z,7.35
2023-01-02T05:58:46.471Z,10.00
2023-01-02T06:01:20.319Z,5.88
2023-01-02T06:03:54.110Z,6.65
2023-01-02T06:06:25.512Z,7.30
2023-01-02T06:08:53.124Z,6.63
2023-01-02T06:11:19.971Z,6.28
2023-01-02T06:13:46.877Z,6.18
2023-01-02T06:16:13.750Z,4.70
2023-01-02T06:18:41.019Z,7.03
2023-01-02T06:21:14.908Z,9.45
2023-01-02T06:23:43.159Z,7.88
2023-01-02T06:26:14.975Z,5.50
2023-01-02T06:28:43.255Z,4.18
2023-01-02T06:31:15.122Z,7.25
2023-01-02T06:33:42.799Z,5.40
2023-01-02T06:36:16.828Z,10.30
2023-01-02T06:38:45.540Z,7.25
2023-01-02T06:41:13.330Z,4.90
2023-01-02T06:43:49.409Z,2.65
2023-01-02T06:46:19.677Z,1.38
2023-01-02T06:48:47.331Z,2.40
2023-01-02T06:51:19.003Z,1.17
2023-01-02T06:53:46.541Z,1.98
2023-01-02T06:56:17.076Z,3.65
2023-01-02T06:58:44.021Z,0.93
2023-01-02T07:01:18.725Z,0.85
2023-01-02T07:03:45.943Z,0.80
2023-01-02T07:06:17.223Z,1.35
2023-01-02T07:08:44.876Z,1.38
2023-01-02T07:11:20.801Z,1.38
2023-01-02T07:13:50.421Z,0.95
2023-01-02T07:16:20.047Z,1.00
2023-01-02T07:18:47.395Z,2.03
2023-01-02T07:21:18.001Z,5.43
2023-01-02T07:23:45.050Z,2.17
2023-01-02T07:26:13.442Z,2.78
2023-01-02T07:28:40.731Z,3.22
2023-01-02T07:31:13.576Z,2.15
2023-01-02T07:33:41.452Z,4.03
2023-01-02T07:36:13.329Z,2.35
2023-01-02T07:38:40.141Z,2.42
2023-01-02T07:41:19.547Z,3.47
2023-01-02T07:43:47.341Z,5.32
2023-01-02T07:46:17.773Z,5.55
2023-01-02T07:48:45.704Z,10.85
2023-01-02T07:51:13.035Z,8.00
2023-01-02T07:53:41.604Z,9.13
2023-01-02T07:56:09.526Z,5.38
2023-01-02T07:58:37.390Z,3.83
2023-01-02T08:01:11.332Z,6.05
2023-01-02T08:03:39.967Z,5.60
2023-01-02T08:06:14.669Z,5.68
2023-01-02T08:08:41.994Z,5.32
2023-01-02T08:11:12.474Z,6.72
2023-01-02T08:13:39.984Z,6.97
2023-01-02T08:16:13.385Z,6.63
2023-01-02T08:18:40.597Z,6.32
2023-01-02T08:21:10.537Z,8.18
2023-01-02T08:23:37.829Z,6.28
2023-01-02T08:26:08.151Z,6.80
2023-01-02T08:28:36.599Z,7.13
2023-01-02T08:31:13.267Z,6.53
2023-01-02T08:33:40.543Z,8.43
2023-01-02T08:36:08.595Z,6.78
2023-01-02T08:38:35.595Z,5.55
2023-01-02T08:41:02.729Z,5.72
2023-01-02T08:43:29.471Z,4.68
2023-01-02T08:45:56.315Z,6.00
2023-01-02T08:48:23.218Z,7.07
2023-01-02T08:50:51.262Z,6.90
2023-01-02T08:53:18.905Z,10.18
2023-01-02T08:55:45.698Z,6.97
2023-01-02T08:58:12.570Z,6.40
2023-01-02T09:00:39.497Z,8.55
2023-01-02T09:03:07.090Z,7.53
2023-01-02T09:05:34.347Z,6.18
2023-01-02T09:08:02.176Z,5.72
2023-01-02T09:10:28.925Z,6.50
2023-01-02T09:12:55.985Z,5.43
2023-01-02T09:15:22.825Z,4.55
2023-01-02T09:17:49.649Z,4.65
2023-01-02T09:20:16.590Z,8.07
2023-01-02T09:22:44.604Z,5.15
2023-01-02T09:25:12.353Z,8.85
2023-01-02T09:27:39.175Z,5.57
2023-01-02T09:30:06.806Z,5.50
2023-01-02T09:32:33.616Z,5.88
2023-01-02T09:35:00.355Z,5.43
2023-01-02T09:37:28.532Z,6.15
2023-01-02T09:39:55.352Z,10.45
2023-01-02T09:42:22.883Z,7.18
2023-01-02T09:44:59.516Z,8.50
2023-01-02T09:47:29.851Z,6.45
2023-01-02T09:50:00.866Z,5.00
2023-01-02T09:52:44.207Z,5.70
2023-01-02T09:55:56.022Z,6.75
2023-01-02T09:58:50.629Z,7.25
2023-01-02T10:01:59.134Z,8.57
2023-01-02T10:05:10.334Z,11.50
2023-01-02T10:08:10.937Z,7.18
2023-01-02T10:11:11.238Z,9.98
2023-01-02T10:14:18.171Z,6.43
2023-01-02T10:16:47.648Z,8.35
2023-01-02T10:19:27.923Z,7.45
2023-01-02T10:22:00.026Z,8.00
2023-01-02T10:24:43.857Z,6.60
2023-01-02T10:27:21.525Z,9.75
2023-01-02T10:30:07.683Z,7.28
2023-01-02T10:32:36.093Z,9.30
2023-01-02T10:35:05.849Z,6.78
2023-01-02T10:37:34.388Z,4.35
2023-01-02T10:40:01.885Z,5.53
2023-01-02T10:42:33.252Z,8.23
2023-01-02T10:45:01.074Z,6.72
2023-01-02T10:47:38.532Z,5.18
2023-01-02T10:50:23.567Z,8.00
2023-01-02T10:52:53.719Z,7.15
2023-01-02T10:55:43.614Z,7.47
2023-01-02T10:58:26.135Z,5.10
2023-01-02T11:01:13.564Z,7.65
2023-01-02T11:03:40.709Z,5.68
2023-01-02T11:06:29.309Z,7.82
2023-01-02T11:09:04.468Z,5.88
2023-01-02T11:11:33.181Z,6.40
2023-01-02T11:14:08.703Z,7.40
2023-01-02T11:16:40.508Z,7.20
2023-01-02T11:19:24.041Z,10.48
2023-01-02T11:21:54.535Z,10.13
2023-01-02T11:24:25.858Z,9.98
2023-01-02T11:26:54.672Z,9.73
2023-01-02T11:29:34.502Z,10.63
2023-01-02T11:32:03.992Z,11.50
2023-01-02T11:34:40.624Z,11.15
2023-01-02T11:37:13.509Z,9.07
2023-01-02T11:39:41.457Z,12.73
2023-01-02T11:42:27.125Z,10.02
2023-01-02T11:45:04.753Z,9.70
2023-01-02T11:47:48.636Z,7.88
2023-01-02T11:50:35.171Z,7.60
2023-01-02T11:53:15.113Z,11.02
2023-01-02T11:55:50.209Z,9.35
2023-01-02T11:59:00.090Z,11.85
2023-01-02T12:01:49.992Z,16.08
2023-01-02T12:04:17.142Z,11.43
2023-01-02T12:07:03.948Z,12.77
2023-01-02T12:09:46.329Z,10.98
2023-01-02T12:12:26.642Z,17.25
2023-01-02T12:15:18.192Z,10.05
2023-01-02T12:17:58.706Z,14.82
2023-01-02T12:20:41.264Z,12.18
2023-01-02T12:23:48.764Z,14.63
2023-01-02T12:26:32.446Z,10.75
2023-01-02T12:29:46.131Z,12.68
2023-01-02T12:32:45.313Z,13.77
2023-01-02T12:35:52.142Z,12.18
2023-01-02T12:38:42.592Z,12.70
2023-01-02T12:41:32.179Z,16.15
2023-01-02T12:44:16.584Z,15.73
2023-01-02T12:47:23.377Z,12.70
2023-01-02T12:50:33.524Z,12.95
2023-01-02T12:56:38.683Z,9.35
2023-01-02T12:59:24.918Z,13.23
2023-01-02T13:02:29.502Z,11.18
2023-01-02T13:05:08.431Z,11.55
2023-01-02T13:07:50.436Z,12.48
2023-01-02T13:10:22.344Z,19.02
2023-01-02T13:12:49.665Z,23.02
2023-01-02T13:15:33.388Z,16.10
2023-01-02T13:19:00.161Z,16.55
2023-01-02T13:21:43.992Z,18.73
2023-01-02T13:24:19.864Z,12.65
2023-01-02T13:26:47.021Z,13.60
2023-01-02T13:29:13.715Z,18.75
2023-01-02T13:31:49.277Z,14.95
2023-01-02T13:34:25.551Z,16.23
2023-01-02T13:37:10.570Z,15.15
2023-01-02T13:39:40.011Z,15.88
2023-01-02T13:42:55.123Z,15.82
2023-01-02T13:45:34.738Z,16.77
2023-01-02T13:48:36.657Z,19.10
2023-01-02T13:51:16.894Z,14.85
2023-01-02T13:53:46.890Z,18.23
2023-01-02T13:56:24.225Z,14.80
2023-01-02T13:59:41.846Z,14.25
2023-01-02T14:02:20.988Z,15.30
2023-01-02T14:04:48.220Z,11.20
2023-01-02T14:07:27.530Z,11.55
2023-01-02T14:10:09.517Z,14.10
2023-01-02T14:13:08.422Z,18.50
2023-01-02T14:16:08.298Z,15.68
2023-01-02T14:18:35.144Z,14.85
2023-01-02T14:21:02.632Z,13.05
2023-01-02T14:23:40.270Z,16.55
2023-01-02T14:26:28.624Z,14.88
2023-01-02T14:28:56.972Z,16.35
2023-01-02T14:31:34.421Z,14.75
2023-01-02T14:34:01.572Z,12.18
2023-01-02T14:36:46.274Z,11.55
2023-01-02T14:39:26.768Z,10.90
2023-01-02T14:42:12.261Z,13.38
2023-01-02T14:44:48.036Z,13.57
2023-01-02T14:47:23.547Z,10.95
2023-01-02T14:50:01.622Z,13.85
2023-01-02T14:52:39.207Z,17.70
2023-01-02T14:55:22.612Z,16.13
2023-01-02T14:57:53.083Z,9.90
2023-01-02T15:00:35.004Z,9.07
2023-01-02T15:03:28.994Z,14.93
2023-01-02T15:06:21.347Z,13.90
2023-01-02T15:08:54.347Z,10.65
2023-01-02T15:11:44.009Z,12.23
2023-01-02T15:14:23.600Z,11.82
2023-01-02T15:16:59.998Z,11.60
2023-01-02T15:19:32.423Z,8.13
2023-01-02T15:22:08.384Z,8.70
2023-01-02T15:24:35.592Z,11.70
2023-01-02T15:27:25.290Z,8.05
2023-01-02T15:30:00.880Z,7.32
2023-01-02T15:32:33.587Z,7.75
2023-01-02T15:35:26.511Z,8.23
2023-01-02T15:37:54.461Z,7.65
2023-01-02T15:40:34.073Z,9.63
2023-01-02T15:43:24.573Z,10.90
2023-01-02T15:45:53.134Z,7.15
2023-01-02T15:48:24.227Z,10.60
2023-01-02T15:50:55.285Z,12.55
2023-01-02T15:53:34.546Z,10.95
2023-01-02T15:56:01.456Z,9.18
2023-01-02T15:58:31.897Z,14.45
2023-01-02T16:01:21.168Z,10.43
2023-01-02T16:04:04.255Z,11.57
2023-01-02T16:06:35.434Z,8.75
2023-01-02T16:09:06.795Z,11.50
2023-01-02T16:11:49.670Z,7.90
2023-01-02T16:14:26.726Z,11.80
2023-01-02T16:17:21.226Z,8.00
2023-01-02T16:19:58.935Z,10.73
2023-01-02T16:22:49.706Z,7.65
2023-01-02T16:25:20.658Z,8.07
2023-01-02T16:28:36.323Z,10.10
2023-01-02T16:31:18.735Z,12.43
2023-01-02T16:33:46.799Z,8.73
2023-01-02T16:36:19.825Z,8.80
2023-01-02T16:38:58.846Z,10.02
2023-01-02T16:41:34.408Z,9.35
2023-01-02T16:44:03.056Z,10.25
2023-01-02T16:46:31.056Z,11.48
2023-01-02T16:49:05.010Z,10.13
2023-01-02T16:51:32.732Z,9.90
2023-01-02T16:53:59.712Z,12.00
2023-01-02T16:56:26.517Z,12.07
2023-01-02T16:58:53.425Z,12.23
2023-01-02T17:01:22.733Z,10.20
2023-01-02T17:03:49.608Z,8.60
2023-01-02T17:06:19.071Z,11.23
2023-01-02T17:08:46.028Z,8.52
2023-01-02T17:11:24.097Z,9.35
2023-01-02T17:13:52.777Z,8.60
2023-01-02T17:16:20.342Z,8.25
2023-01-02T17:18:47.288Z,11.68
2023-01-02T17:21:14.597Z,12.35
2023-01-02T17:23:41.743Z,8.82
2023-01-02T17:26:08.565Z,11.10
2023-01-02T17:28:35.445Z,11.05
2023-01-02T17:31:02.238Z,10.23
2023-01-02T17:33:29.050Z,13.80
2023-01-02T17:35:56.664Z,11.85
2023-01-02T17:38:23.487Z,11.95
2023-01-02T17:40:58.143Z,13.10
2023-01-02T17:43:26.310Z,18.27
2023-01-02T17:45:53.665Z,13.07
2023-01-02T17:48:24.677Z,12.98
2023-01-02T17:50:53.409Z,11.70
2023-01-02T17:53:20.833Z,15.55
2023-01-02T17:56:20.370Z,14.68
2023-01-02T17:58:40.369Z,17.02
2023-01-02T18:01:07.336Z,19.88
2023-01-02T18:03:34.316Z,16.13
2023-01-02T18:06:06.068Z,16.02
2023-01-02T18:08:33.982Z,19.98
2023-01-02T18:11:05.172Z,17.23
2023-01-02T18:13:39.719Z,12.85
2023-01-02T18:16:17.038Z,17.92
2023-01-02T18:18:45.737Z,18.50
2023-01-02T18:21:22.514Z,17.67
2023-01-02T18:23:56.072Z,17.90
2023-01-02T18:26:25.372Z,12.82
2023-01-02T18:29:02.839Z,13.95
2023-01-02T18:31:43.358Z,9.57
2023-01-02T18:34:47.127Z,19.00
2023-01-02T18:37:26.103Z,13.20
2023-01-02T18:39:54.830Z,11.18
2023-01-02T18:42:33.545Z,15.38
2023-01-02T18:45:00.746Z,15.05
2023-01-02T18:47:34.790Z,12.23
2023-01-02T18:50:19.856Z,11.80
2023-01-02T18:52:50.365Z,11.85
2023-01-02T18:55:26.276Z,12.43
2023-01-02T18:58:01.627Z,12.80
2023-01-02T19:00:33.503Z,12.93
2023-01-02T19:03:19.288Z,8.80
2023-01-02T19:05:46.126Z,13.25
2023-01-02T19:08:22.098Z,9.35
2023-01-02T19:10:55.755Z,10.70
2023-01-02T19:13:32.203Z,10.13
2023-01-02T19:16:19.403Z,10.68
2023-01-02T19:18:50.100Z,10.25
2023-01-02T19:21:31.351Z,9.23
2023-01-02T19:24:22.697Z,11.73
2023-01-02T19:26:55.511Z,10.48
2023-01-02T19:29:30.361Z,10.55
2023-01-02T19:32:29.202Z,11.13
2023-01-02T19:35:04.141Z,12.65
2023-01-02T19:37:39.076Z,13.63
2023-01-02T19:40:20.815Z,7.22
2023-01-02T19:42:53.447Z,7.75
2023-01-02T19:45:24.485Z,11.77
2023-01-02T19:47:53.081Z,9.32
2023-01-02T19:50:27.029Z,14.38
2023-01-02T19:52:54.462Z,13.77
2023-01-02T19:55:21.419Z,15.80
2023-01-02T19:57:48.685Z,15.90
2023-01-02T20:00:19.317Z,11.13
2023-01-02T20:02:49.640Z,10.90
2023-01-02T20:05:21.482Z,14.63
2023-01-02T20:07:53.227Z,17.05
2023-01-02T20:10:22.480Z,21.10
2023-01-02T20:12:50.191Z,21.13
2023-01-02T20:15:23.779Z,18.42
2023-01-02T20:17:52.958Z,20.75
2023-01-02T20:20:25.163Z,24.20
2023-01-02T20:22:52.531Z,16.88
2023-01-02T20:25:25.270Z,15.57
2023-01-02T20:27:54.830Z,12.30
2023-01-02T20:30:25.001Z,22.60
2023-01-02T20:32:54.409Z,22.17
2023-01-02T20:35:22.161Z,20.52
2023-01-02T20:37:49.172Z,16.10
2023-01-02T20:40:16.722Z,21.70
2023-01-02T20:42:43.725Z,22.10
2023-01-02T20:45:12.128Z,22.33
2023-01-02T20:47:38.985Z,19.30
2023-01-02T20:50:06.460Z,17.77
2023-01-02T20:52:33.346Z,19.52
2023-01-02T20:55:00.409Z,22.58
2023-01-02T20:57:27.471Z,17.88
2023-01-02T20:59:54.365Z,15.90
2023-01-02T21:02:21.357Z,19.02
2023-01-02T21:04:48.255Z,23.77
2023-01-02T21:07:15.057Z,21.38
2023-01-02T21:09:41.812Z,23.20
2023-01-02T21:12:28.599Z,20.02
2023-01-02T21:14:55.558Z,24.50
2023-01-02T21:17:22.416Z,25.85
2023-01-02T21:19:49.166Z,25.17
2023-01-02T21:22:16.001Z,28.13
2023-01-02T21:24:43.463Z,24.33
2023-01-02T21:27:13.229Z,16.65
2023-01-02T21:29:40.615Z,22.50
2023-01-02T21:32:07.470Z,23.77
2023-01-02T21:34:34.381Z,22.80
2023-01-02T21:37:01.224Z,25.25
2023-01-02T21:39:28.063Z,25.30
2023-01-02T21:42:13.248Z,24.02
2023-01-02T21:44:40.031Z,30.40
2023-01-02T21:47:07.214Z,20.95
2023-01-02T21:49:34.163Z,30.70
2023-01-02T21:52:01.814Z,25.60
2023-01-02T21:54:28.794Z,28.83
2023-01-02T21:56:55.825Z,28.70
2023-01-02T21:59:25.441Z,29.73
2023-01-02T22:01:53.423Z,21.10
2023-01-02T22:04:21.602Z,23.83
2023-01-02T22:07:21.270Z,16.98
2023-01-02T22:09:36.079Z,30.52
2023-01-02T22:12:03.058Z,28.77
2023-01-02T22:14:33.901Z,20.60
2023-01-02T22:17:08.989Z,27.92
2023-01-02T22:19:36.816Z,24.77
2023-01-02T22:22:05.160Z,29.05
2023-01-02T22:24:32.477Z,30.90
2023-01-02T22:27:04.837Z,28.50
2023-01-02T22:32:19.937Z,23.55
2023-01-02T22:34:47.064Z,36.38
2023-01-02T22:37:21.998Z,28.08
2023-01-02T22:39:49.410Z,20.85
2023-01-02T22:43:03.824Z,31.15
2023-01-02T22:45:45.199Z,29.02
2023-01-02T22:48:23.833Z,30.38
2023-01-02T22:53:23.966Z,34.72
2023-01-02T22:55:51.453Z,24.48
2023-01-02T22:58:19.427Z,23.77
2023-01-02T23:00:57.631Z,21.02
2023-01-02T23:03:27.094Z,31.65
2023-01-02T23:05:53.829Z,18.42
2023-01-02T23:08:20.667Z,21.90
2023-01-02T23:10:47.475Z,24.60
2023-01-02T23:13:14.289Z,26.35
2023-01-02T23:16:01.083Z,26.92
2023-01-02T23:18:50.455Z,27.33
2023-01-02T23:21:26.138Z,24.70
2023-01-02T23:23:53.672Z,24.67
2023-01-02T23:26:24.128Z,26.05
2023-01-02T23:29:08.441Z,27.17
2023-01-02T23:31:39.656Z,29.17
2023-01-02T23:34:08.820Z,31.48
2023-01-02T23:36:36.799Z,27.58
2023-01-02T23:39:06.639Z,31.50
2023-01-02T23:41:35.605Z,32.33
2023-01-02T23:44:02.513Z,29.92
2023-01-02T23:46:29.516Z,29.88
2023-01-02T23:48:56.419Z,28.15
2023-01-02T23:51:23.213Z,33.08
2023-01-02T23:53:50.028Z,30.30
2023-01-02T23:56:21.948Z,32.53
2023-01-02T23:58:51.729Z,31.30
